Time;durP1;ratioP1;P1;durP2;ratioP2;P2;SDS_P1;SDS_P2;PMS_P1;PMS_P2;Temp;Humidity;BMP_temperature;BMP_pressure;BME280_temperature;BME280_humidity;BME280_pressure;Samples;Min_cycle;Max_cycle;Signal;HPM_P1;HPM_P2
2022/07/09 00:01:43;;;;;;;13.55;5.57;;;12.40;95.30;;;;;;5046970;28;20075;-72
2022/07/09 00:04:09;;;;;;;17.08;5.65;;;12.30;95.40;;;;;;5045128;28;20086;-72
2022/07/09 00:06:34;;;;;;;14.85;5.80;;;12.30;95.50;;;;;;5047255;28;20477;-72
2022/07/09 00:09:00;;;;;;;16.73;5.72;;;12.30;95.60;;;;;;5041209;28;20079;-72
2022/07/09 00:11:25;;;;;;;11.77;5.28;;;12.30;95.70;;;;;;5039681;28;20033;-72
2022/07/09 00:13:51;;;;;;;11.35;5.47;;;12.30;95.80;;;;;;5045663;28;20379;-72
2022/07/09 00:16:16;;;;;;;18.05;6.22;;;12.30;95.80;;;;;;5046028;28;20037;-72
2022/07/09 00:18:42;;;;;;;20.17;6.30;;;12.30;95.80;;;;;;5043836;28;20132;-72
2022/07/09 00:21:07;;;;;;;20.67;6.10;;;12.30;95.80;;;;;;5045996;28;20052;-72
2022/07/09 00:23:33;;;;;;;12.48;5.40;;;12.30;95.90;;;;;;5044941;28;20037;-72
2022/07/09 00:25:58;;;;;;;12.82;6.00;;;12.30;95.90;;;;;;5043597;28;20029;-72
2022/07/09 00:28:24;;;;;;;12.98;6.13;;;12.30;95.90;;;;;;5044754;28;20103;-72
2022/07/09 00:30:49;;;;;;;16.55;5.78;;;12.30;95.90;;;;;;5048445;28;20041;-72
2022/07/09 00:33:15;;;;;;;19.20;6.22;;;12.30;95.90;;;;;;5046824;28;20041;-72
2022/07/09 00:35:41;;;;;;;17.85;5.75;;;12.20;95.90;;;;;;5044540;28;20040;-72
2022/07/09 00:38:06;;;;;;;15.40;5.72;;;12.20;96.00;;;;;;5045382;28;20105;-72
2022/07/09 00:40:34;;;;;;;22.08;5.63;;;12.10;96.00;;;;;;5044307;28;20709;-72
2022/07/09 00:42:59;;;;;;;15.82;5.78;;;12.10;96.20;;;;;;5041257;28;20028;-72
2022/07/09 00:45:26;;;;;;;18.17;6.72;;;12.20;96.20;;;;;;5045511;28;20029;-72
2022/07/09 00:47:51;;;;;;;15.65;5.75;;;12.10;96.20;;;;;;5046471;28;20115;-72
2022/07/09 00:50:18;;;;;;;18.50;6.82;;;12.10;96.30;;;;;;5042661;28;20520;-72
2022/07/09 00:52:44;;;;;;;16.73;5.45;;;12.00;96.30;;;;;;5045319;28;20025;-72
2022/07/09 00:55:11;;;;;;;15.45;6.32;;;12.00;96.40;;;;;;5041681;28;20506;-72
2022/07/09 00:57:38;;;;;;;20.65;6.88;;;12.00;96.40;;;;;;5042452;28;20102;-72
2022/07/09 01:00:04;;;;;;;19.13;6.75;;;11.90;96.50;;;;;;5041143;28;20498;-72
2022/07/09 01:02:30;;;;;;;16.58;7.07;;;11.90;96.60;;;;;;5048703;28;20094;-72
2022/07/09 01:04:55;;;;;;;22.10;7.20;;;11.90;96.60;;;;;;5045170;28;20076;-72
2022/07/09 01:07:21;;;;;;;27.33;7.45;;;11.90;96.70;;;;;;5046004;28;20609;-72
2022/07/09 01:09:46;;;;;;;17.30;7.30;;;12.00;96.80;;;;;;5045838;28;20037;-72
2022/07/09 01:12:12;;;;;;;16.90;6.93;;;12.00;96.90;;;;;;5043387;28;20064;-72
2022/07/09 01:14:37;;;;;;;18.95;7.97;;;12.00;96.90;;;;;;5038894;28;20483;-72
2022/07/09 01:17:06;;;;;;;15.10;7.43;;;12.00;96.90;;;;;;5047064;28;20056;-72
2022/07/09 01:19:33;;;;;;;19.70;8.40;;;12.00;97.00;;;;;;5047265;28;20049;-72
2022/07/09 01:21:59;;;;;;;23.58;8.57;;;12.00;97.00;;;;;;5043714;28;20055;-72
2022/07/09 01:24:25;;;;;;;19.42;8.18;;;12.00;97.00;;;;;;5047056;28;20201;-72
2022/07/09 01:26:53;;;;;;;20.45;8.95;;;12.10;97.00;;;;;;5042803;28;20432;-72
2022/07/09 01:29:18;;;;;;;19.85;8.93;;;12.10;97.00;;;;;;5045340;28;20353;-72
2022/07/09 01:31:44;;;;;;;16.10;8.43;;;12.10;97.00;;;;;;5042856;28;20037;-72
2022/07/09 01:34:10;;;;;;;17.05;8.63;;;12.10;97.00;;;;;;5045917;28;20052;-72
2022/07/09 01:36:35;;;;;;;20.08;8.85;;;12.20;97.00;;;;;;5042989;28;20452;-72
2022/07/09 01:39:00;;;;;;;15.40;7.70;;;12.20;96.90;;;;;;5046684;28;20391;-72
2022/07/09 01:41:26;;;;;;;21.13;8.95;;;12.20;97.00;;;;;;5045414;28;20041;-72
2022/07/09 01:43:52;;;;;;;18.05;8.23;;;12.20;96.90;;;;;;5039652;28;20074;-72
2022/07/09 01:46:17;;;;;;;20.73;9.30;;;12.30;97.00;;;;;;5041799;28;20036;-72
2022/07/09 01:48:43;;;;;;;17.88;8.35;;;12.30;96.80;;;;;;5045390;28;20039;-72
2022/07/09 01:51:09;;;;;;;18.35;8.07;;;12.40;96.90;;;;;;5042396;28;20033;-72
2022/07/09 01:53:35;;;;;;;16.55;7.95;;;12.40;96.80;;;;;;5052488;28;20180;-72
2022/07/09 01:56:08;;;;;;;16.90;8.25;;;12.40;96.80;;;;;;5046769;28;20045;-72
2022/07/09 01:58:34;;;;;;;18.42;7.20;;;12.50;96.90;;;;;;5048673;28;20039;-72
2022/07/09 02:00:59;;;;;;;22.15;8.60;;;12.50;96.80;;;;;;5049189;28;20037;-72
2022/07/09 02:03:25;;;;;;;14.60;7.90;;;12.50;96.80;;;;;;5048284;28;20391;-72
2022/07/09 02:05:51;;;;;;;20.48;8.45;;;12.50;96.80;;;;;;5049857;28;20029;-72
2022/07/09 02:08:16;;;;;;;13.95;7.50;;;12.50;96.80;;;;;;5050305;28;20103;-72
2022/07/09 02:10:42;;;;;;;19.77;7.18;;;12.60;96.80;;;;;;5052101;28;20037;-72
2022/07/09 02:13:07;;;;;;;18.95;7.75;;;12.60;96.80;;;;;;5049336;28;20029;-72
2022/07/09 02:15:33;;;;;;;15.82;7.30;;;12.60;96.70;;;;;;5046245;28;20047;-72
2022/07/09 02:17:59;;;;;;;15.18;7.13;;;12.60;96.80;;;;;;5047377;28;20021;-72
2022/07/09 02:20:25;;;;;;;14.40;6.90;;;12.60;96.80;;;;;;5047391;28;20041;-72
2022/07/09 02:22:51;;;;;;;14.55;7.32;;;12.60;96.70;;;;;;5050347;28;20464;-72
2022/07/09 02:25:17;;;;;;;17.67;7.45;;;12.60;96.80;;;;;;5045729;28;20595;-72
2022/07/09 02:27:42;;;;;;;16.10;7.53;;;12.60;96.90;;;;;;5050744;28;20479;-72
2022/07/09 02:30:08;;;;;;;16.15;7.10;;;12.60;96.90;;;;;;5047631;28;20504;-72
2022/07/09 02:32:33;;;;;;;14.23;7.07;;;12.60;97.00;;;;;;5049953;28;20036;-72
2022/07/09 02:34:59;;;;;;;17.90;7.47;;;12.60;96.90;;;;;;5049454;28;20049;-72
2022/07/09 02:37:24;;;;;;;21.70;6.97;;;12.60;96.90;;;;;;5050487;28;20336;-72
2022/07/09 02:39:50;;;;;;;18.25;7.22;;;12.70;96.90;;;;;;5048692;28;20136;-72
2022/07/09 02:42:15;;;;;;;18.85;7.57;;;12.70;96.90;;;;;;5048768;28;20337;-72
2022/07/09 02:44:43;;;;;;;18.80;7.55;;;12.70;97.00;;;;;;5046883;28;20025;-72
2022/07/09 02:47:09;;;;;;;19.38;7.47;;;12.70;97.00;;;;;;5046218;28;20450;-72
2022/07/09 02:49:34;;;;;;;14.18;7.00;;;12.70;97.00;;;;;;5049661;28;20104;-72
2022/07/09 02:52:01;;;;;;;17.70;7.80;;;12.70;97.10;;;;;;5046607;28;20053;-72
2022/07/09 02:54:27;;;;;;;18.40;7.35;;;12.70;97.10;;;;;;5041911;28;20360;-72
2022/07/09 02:56:53;;;;;;;13.18;7.28;;;12.80;97.10;;;;;;5050440;28;20040;-72
2022/07/09 02:59:18;;;;;;;17.90;7.70;;;12.80;97.10;;;;;;5042764;28;20075;-72
2022/07/09 03:01:44;;;;;;;17.92;7.30;;;12.80;97.10;;;;;;5051937;28;20384;-72
2022/07/09 03:04:10;;;;;;;14.95;7.10;;;12.80;97.10;;;;;;5051249;28;20041;-72
2022/07/09 03:06:36;;;;;;;13.20;6.43;;;12.80;97.10;;;;;;5048835;28;20077;-72
2022/07/09 03:09:02;;;;;;;15.45;8.05;;;12.80;97.10;;;;;;5050584;28;20212;-72
2022/07/09 03:11:27;;;;;;;15.35;7.45;;;12.80;97.30;;;;;;5049347;28;20303;-72
2022/07/09 03:13:53;;;;;;;14.82;7.10;;;12.80;97.30;;;;;;5046788;28;20124;-72
2022/07/09 03:16:18;;;;;;;21.92;7.50;;;12.80;97.30;;;;;;5050837;28;20044;-72
2022/07/09 03:18:44;;;;;;;15.40;7.20;;;12.80;97.40;;;;;;5051917;28;20048;-72
2022/07/09 03:21:11;;;;;;;17.10;8.05;;;12.80;97.40;;;;;;5048722;28;20140;-72
2022/07/09 03:23:37;;;;;;;16.80;7.75;;;12.90;97.40;;;;;;5049433;28;20017;-72
2022/07/09 03:26:04;;;;;;;18.63;8.27;;;12.90;97.40;;;;;;5047755;28;20502;-72
2022/07/09 03:28:30;;;;;;;15.32;7.85;;;12.90;97.40;;;;;;5047054;28;20040;-72
2022/07/09 03:30:56;;;;;;;13.80;6.75;;;13.00;97.50;;;;;;5042562;28;20052;-72
2022/07/09 03:33:22;;;;;;;18.25;8.20;;;13.00;97.40;;;;;;5037006;28;20036;-72
2022/07/09 03:35:47;;;;;;;14.55;7.53;;;13.00;97.40;;;;;;5051975;28;20059;-72
2022/07/09 03:38:12;;;;;;;17.83;7.75;;;13.00;97.40;;;;;;5048819;28;20098;-72
2022/07/09 03:40:38;;;;;;;15.80;7.75;;;13.00;97.50;;;;;;5044900;28;20059;-72
2022/07/09 03:43:03;;;;;;;15.40;7.47;;;13.00;97.40;;;;;;5046359;28;20060;-72
2022/07/09 03:45:29;;;;;;;12.65;6.78;;;13.00;97.40;;;;;;5045925;28;20114;-72
2022/07/09 03:47:54;;;;;;;18.40;7.15;;;13.10;97.40;;;;;;5044983;28;20081;-72
2022/07/09 03:50:20;;;;;;;14.95;7.82;;;13.10;97.40;;;;;;5045938;28;20434;-72
2022/07/09 03:52:46;;;;;;;16.25;7.80;;;13.10;97.40;;;;;;5049387;28;20124;-72
2022/07/09 03:55:11;;;;;;;17.77;6.97;;;13.10;97.40;;;;;;5041880;28;20142;-72
2022/07/09 03:57:37;;;;;;;19.75;7.53;;;13.20;97.40;;;;;;5046466;28;20129;-72
2022/07/09 04:00:05;;;;;;;18.92;7.43;;;13.30;97.50;;;;;;5042812;28;20491;-72
2022/07/09 04:02:30;;;;;;;13.35;7.60;;;13.20;97.40;;;;;;5047711;28;20032;-72
2022/07/09 04:04:56;;;;;;;15.10;7.43;;;13.30;97.40;;;;;;5040994;28;20519;-72
2022/07/09 04:07:22;;;;;;;14.50;7.57;;;13.20;97.30;;;;;;5041825;28;20044;-72
2022/07/09 04:09:48;;;;;;;17.00;7.22;;;13.20;97.20;;;;;;5045747;28;20037;-72
2022/07/09 04:12:13;;;;;;;17.67;8.23;;;13.10;97.30;;;;;;5045772;28;20036;-72
2022/07/09 04:14:39;;;;;;;18.35;7.53;;;13.10;97.40;;;;;;5041936;28;20028;-72
2022/07/09 04:17:05;;;;;;;14.40;7.15;;;13.10;97.40;;;;;;5048454;28;20107;-72
2022/07/09 04:19:31;;;;;;;19.33;7.57;;;13.10;97.50;;;;;;5045451;28;20041;-70
2022/07/09 04:21:57;;;;;;;13.80;8.07;;;13.10;97.50;;;;;;5045579;28;20377;-70
2022/07/09 04:24:22;;;;;;;19.17;7.32;;;13.10;97.50;;;;;;5045910;28;20116;-70
2022/07/09 04:26:48;;;;;;;18.45;7.93;;;13.10;97.60;;;;;;5048284;28;20037;-70
2022/07/09 04:29:13;;;;;;;19.60;7.97;;;13.10;97.60;;;;;;5043027;28;20047;-70
2022/07/09 04:31:39;;;;;;;13.00;7.55;;;13.10;97.60;;;;;;5043988;28;20033;-70
2022/07/09 04:34:04;;;;;;;20.50;8.30;;;13.20;97.70;;;;;;5044147;28;20103;-70
2022/07/09 04:36:31;;;;;;;14.05;8.15;;;13.20;97.60;;;;;;5044703;28;20068;-68
2022/07/09 04:38:56;;;;;;;13.82;7.88;;;13.30;97.70;;;;;;5045187;28;20029;-68
2022/07/09 04:41:22;;;;;;;17.40;7.72;;;13.30;97.70;;;;;;5035760;28;20178;-68
2022/07/09 04:43:48;;;;;;;15.98;7.47;;;13.50;97.60;;;;;;5044535;28;20166;-70
2022/07/09 04:46:13;;;;;;;20.38;7.93;;;13.50;97.60;;;;;;5045646;28;20112;-70
2022/07/09 04:48:39;;;;;;;18.60;7.22;;;13.60;97.50;;;;;;5048198;28;20021;-70
2022/07/09 04:51:05;;;;;;;14.45;7.47;;;13.60;97.50;;;;;;5044513;28;20364;-70
2022/07/09 04:53:30;;;;;;;14.93;6.90;;;13.70;97.40;;;;;;5044842;28;20042;-70
2022/07/09 04:55:56;;;;;;;16.10;6.55;;;13.70;97.40;;;;;;5043521;28;20119;-70
2022/07/09 04:58:22;;;;;;;13.77;6.65;;;13.80;97.40;;;;;;5042520;28;20535;-70
2022/07/09 05:00:47;;;;;;;13.45;6.65;;;13.90;97.30;;;;;;5043449;28;20132;-70
2022/07/09 05:03:13;;;;;;;10.70;6.70;;;14.00;97.30;;;;;;5043868;28;20337;-70
2022/07/09 05:05:38;;;;;;;14.88;6.65;;;14.00;97.30;;;;;;5043501;28;20085;-70
2022/07/09 05:08:04;;;;;;;18.25;7.25;;;14.00;97.10;;;;;;5046366;28;20340;-70
2022/07/09 05:10:29;;;;;;;15.23;6.57;;;14.10;97.10;;;;;;5043823;28;20071;-70
2022/07/09 05:12:55;;;;;;;14.23;6.50;;;14.20;97.10;;;;;;5043122;28;20044;-70
2022/07/09 05:15:20;;;;;;;13.10;5.80;;;14.30;97.00;;;;;;5043627;28;20094;-70
2022/07/09 05:17:46;;;;;;;17.30;6.55;;;14.30;96.90;;;;;;5042189;28;20202;-70
2022/07/09 05:20:11;;;;;;;14.85;6.82;;;14.30;96.90;;;;;;5042784;28;20476;-70
2022/07/09 05:22:38;;;;;;;10.95;6.35;;;14.30;96.80;;;;;;5049181;28;20041;-70
2022/07/09 05:25:04;;;;;;;14.48;6.50;;;14.30;96.80;;;;;;5043763;28;20029;-70
2022/07/09 05:27:30;;;;;;;13.73;6.07;;;14.40;96.90;;;;;;5047020;28;20068;-69
2022/07/09 05:29:56;;;;;;;13.30;6.20;;;14.50;96.80;;;;;;5040214;28;20432;-69
2022/07/09 05:32:22;;;;;;;15.30;6.53;;;14.50;96.70;;;;;;5043782;28;20475;-69
2022/07/09 05:34:47;;;;;;;10.73;6.22;;;14.50;96.60;;;;;;5047937;28;20433;-68
2022/07/09 05:37:13;;;;;;;11.27;5.88;;;14.60;96.60;;;;;;5045978;28;20115;-69
2022/07/09 05:39:39;;;;;;;13.70;6.60;;;14.60;96.50;;;;;;5044223;28;20449;-69
2022/07/09 05:42:05;;;;;;;10.45;5.95;;;14.60;96.60;;;;;;5045243;28;20324;-69
2022/07/09 05:44:31;;;;;;;12.85;6.43;;;14.60;96.60;;;;;;5039995;28;20086;-69
2022/07/09 05:46:56;;;;;;;11.07;6.18;;;14.60;96.70;;;;;;5045553;28;20052;-69
2022/07/09 05:49:22;;;;;;;11.57;5.90;;;14.70;96.60;;;;;;5043924;28;20183;-69
2022/07/09 05:51:47;;;;;;;13.52;6.55;;;14.70;96.60;;;;;;5044201;28;20032;-69
2022/07/09 05:54:13;;;;;;;12.25;6.32;;;14.70;96.60;;;;;;5043959;28;20348;-69
2022/07/09 05:56:39;;;;;;;13.90;6.95;;;14.80;96.60;;;;;;5045781;28;20211;-69
2022/07/09 05:59:04;;;;;;;11.10;6.10;;;14.80;96.70;;;;;;5045037;28;20453;-69
2022/07/09 06:01:30;;;;;;;17.10;6.88;;;14.90;96.60;;;;;;5045106;28;20037;-69
2022/07/09 06:03:55;;;;;;;11.68;6.05;;;15.00;96.70;;;;;;5041006;28;20065;-69
2022/07/09 06:06:21;;;;;;;10.05;6.75;;;15.00;96.40;;;;;;5042014;28;20059;-69
2022/07/09 06:08:47;;;;;;;12.35;6.68;;;15.10;96.40;;;;;;5048651;28;20064;-69
2022/07/09 06:11:13;;;;;;;14.50;6.28;;;15.20;96.30;;;;;;5034389;28;20032;-69
2022/07/09 06:13:38;;;;;;;14.68;6.97;;;15.30;96.20;;;;;;5038262;28;20128;-69
2022/07/09 06:16:05;;;;;;;12.05;5.90;;;15.30;96.00;;;;;;5042831;28;20033;-69
2022/07/09 06:18:30;;;;;;;12.15;6.43;;;15.30;95.80;;;;;;5040252;28;20124;-69
2022/07/09 06:20:56;;;;;;;11.48;6.45;;;15.30;96.00;;;;;;5045241;28;20483;-69
2022/07/09 06:23:21;;;;;;;13.82;6.15;;;15.30;95.90;;;;;;5046959;28;20037;-69
2022/07/09 06:25:47;;;;;;;14.90;6.95;;;15.40;96.00;;;;;;5043646;28;20187;-69
2022/07/09 06:28:13;;;;;;;15.65;6.30;;;15.50;95.90;;;;;;5040438;28;20048;-69
2022/07/09 06:30:39;;;;;;;13.18;5.82;;;15.50;95.70;;;;;;5041003;28;20355;-69
2022/07/09 06:33:04;;;;;;;14.77;6.30;;;15.60;95.60;;;;;;5043847;28;20036;-69
2022/07/09 06:35:30;;;;;;;8.50;5.53;;;15.70;95.30;;;;;;5044915;28;20041;-69
2022/07/09 06:37:56;;;;;;;11.70;5.47;;;15.60;95.10;;;;;;5042142;28;20033;-69
2022/07/09 06:40:22;;;;;;;11.73;6.00;;;15.60;95.10;;;;;;5043490;28;20045;-69
2022/07/09 06:42:47;;;;;;;10.25;5.78;;;15.60;95.20;;;;;;5052173;28;20032;-69
2022/07/09 06:45:14;;;;;;;13.18;5.53;;;15.60;95.30;;;;;;5042642;28;20061;-69
2022/07/09 06:47:40;;;;;;;13.75;6.05;;;15.70;95.40;;;;;;5048420;28;20111;-69
2022/07/09 06:50:06;;;;;;;12.60;5.68;;;15.70;95.30;;;;;;5047782;28;20025;-69
2022/07/09 06:52:32;;;;;;;11.55;5.50;;;15.90;95.00;;;;;;5048749;28;20043;-69
2022/07/09 06:54:58;;;;;;;12.05;5.60;;;16.00;94.90;;;;;;5046572;28;20048;-69
2022/07/09 06:57:23;;;;;;;11.38;5.65;;;16.10;94.60;;;;;;5048631;28;20033;-69
2022/07/09 06:59:49;;;;;;;9.70;5.18;;;16.20;94.30;;;;;;5045561;28;20091;-69
2022/07/09 07:02:16;;;;;;;11.57;4.72;;;16.20;94.10;;;;;;5047784;28;20047;-69
2022/07/09 07:04:41;;;;;;;9.82;4.38;;;16.20;94.00;;;;;;5047747;28;20032;-69
2022/07/09 07:07:07;;;;;;;9.30;5.22;;;16.30;93.70;;;;;;5044061;28;20532;-69
2022/07/09 07:09:33;;;;;;;9.27;5.05;;;16.20;93.70;;;;;;5049221;28;20081;-69
2022/07/09 07:11:58;;;;;;;8.07;4.63;;;16.30;93.90;;;;;;5043243;28;20029;-69
2022/07/09 07:14:24;;;;;;;8.23;4.65;;;16.30;93.80;;;;;;5045281;28;20108;-69
2022/07/09 07:16:50;;;;;;;10.48;4.47;;;16.30;93.50;;;;;;5038432;28;20028;-69
2022/07/09 07:19:17;;;;;;;11.35;4.10;;;16.40;93.40;;;;;;5040410;28;20119;-69
2022/07/09 07:21:42;;;;;;;8.98;4.70;;;16.50;93.10;;;;;;5044261;28;22410;-69
2022/07/09 07:24:08;;;;;;;9.05;5.07;;;16.40;93.00;;;;;;5047401;28;20100;-69
2022/07/09 07:26:34;;;;;;;7.00;4.85;;;16.50;92.80;;;;;;5048776;28;20025;-69
2022/07/09 07:29:00;;;;;;;10.38;5.35;;;16.60;93.00;;;;;;5043974;28;20045;-69
2022/07/09 07:31:26;;;;;;;13.45;5.20;;;16.60;92.60;;;;;;5043845;28;20035;-69
2022/07/09 07:33:52;;;;;;;10.48;4.82;;;16.60;92.60;;;;;;5044826;28;20037;-69
2022/07/09 07:36:17;;;;;;;9.30;4.88;;;16.70;92.50;;;;;;5049351;28;20041;-69
2022/07/09 07:38:45;;;;;;;9.50;4.95;;;16.60;92.70;;;;;;5047392;28;20154;-69
2022/07/09 07:41:11;;;;;;;7.30;4.50;;;16.60;92.50;;;;;;5044547;28;20025;-69
2022/07/09 07:43:37;;;;;;;8.05;4.45;;;16.60;92.60;;;;;;5046727;28;20491;-69
2022/07/09 07:46:03;;;;;;;12.98;5.47;;;16.70;92.40;;;;;;5044271;28;20059;-69
2022/07/09 07:48:30;;;;;;;9.57;4.90;;;16.70;92.40;;;;;;5048362;28;20041;-69
2022/07/09 07:50:56;;;;;;;8.27;4.55;;;16.80;92.10;;;;;;5043695;28;20124;-69
2022/07/09 07:53:21;;;;;;;7.78;4.35;;;16.90;92.00;;;;;;5038232;28;20116;-69
2022/07/09 07:55:47;;;;;;;8.18;4.32;;;16.90;91.60;;;;;;5046808;28;20461;-69
2022/07/09 07:58:12;;;;;;;9.40;4.13;;;16.90;91.10;;;;;;5044471;28;20064;-69
2022/07/09 08:00:38;;;;;;;10.27;3.92;;;17.00;91.10;;;;;;5035413;28;20044;-69
2022/07/09 08:03:04;;;;;;;11.73;4.32;;;17.10;91.00;;;;;;5046323;28;20044;-69
2022/07/09 08:05:30;;;;;;;8.73;3.67;;;17.20;90.80;;;;;;5038510;28;20388;-69
2022/07/09 08:07:55;;;;;;;8.23;3.95;;;17.20;90.50;;;;;;5043588;28;20134;-69
2022/07/09 08:10:21;;;;;;;6.05;3.95;;;17.30;90.40;;;;;;5032276;28;20120;-70
2022/07/09 08:12:46;;;;;;;8.68;3.42;;;17.40;89.70;;;;;;5045575;28;20374;-69
2022/07/09 08:15:12;;;;;;;7.32;3.47;;;17.60;89.90;;;;;;5043280;28;20087;-69
2022/07/09 08:17:38;;;;;;;9.07;2.97;;;17.80;89.10;;;;;;5046902;28;20104;-70
2022/07/09 08:20:05;;;;;;;6.18;2.58;;;18.00;88.00;;;;;;5046470;28;20373;-69
2022/07/09 08:22:30;;;;;;;7.25;2.92;;;18.00;87.70;;;;;;5042922;28;20024;-69
2022/07/09 08:24:56;;;;;;;6.82;2.83;;;18.10;87.40;;;;;;5048143;28;20033;-69
2022/07/09 08:27:21;;;;;;;4.97;2.45;;;18.40;87.00;;;;;;5042178;28;20029;-69
2022/07/09 08:29:49;;;;;;;6.70;2.42;;;18.50;85.90;;;;;;5045760;28;20094;-69
2022/07/09 08:32:15;;;;;;;7.32;2.10;;;18.60;85.60;;;;;;5042350;28;20425;-69
2022/07/09 08:34:40;;;;;;;4.07;2.03;;;18.60;85.40;;;;;;5045134;28;20029;-69
2022/07/09 08:37:06;;;;;;;4.22;2.05;;;18.60;84.80;;;;;;5045673;28;20472;-69
2022/07/09 08:39:31;;;;;;;6.53;1.88;;;18.70;84.80;;;;;;5045730;28;20120;-69
2022/07/09 08:41:58;;;;;;;4.95;2.08;;;18.70;84.30;;;;;;5042608;28;20056;-69
2022/07/09 08:44:28;;;;;;;5.35;2.10;;;18.60;84.50;;;;;;5043067;28;20499;-69
2022/07/09 08:46:55;;;;;;;5.18;2.20;;;18.60;84.80;;;;;;5045870;28;20041;-69
2022/07/09 08:49:22;;;;;;;4.85;1.58;;;18.60;84.80;;;;;;5043543;28;20440;-69
2022/07/09 08:51:49;;;;;;;6.75;1.80;;;18.50;84.30;;;;;;5044635;28;20057;-69
2022/07/09 08:54:15;;;;;;;4.43;1.73;;;18.70;84.30;;;;;;5044888;28;20083;-69
2022/07/09 08:56:41;;;;;;;4.97;1.45;;;19.40;82.30;;;;;;5036341;28;20025;-69
2022/07/09 08:59:06;;;;;;;3.75;1.50;;;19.50;81.20;;;;;;5044025;28;20055;-69
2022/07/09 09:01:32;;;;;;;2.92;1.13;;;19.60;81.00;;;;;;5042258;28;20456;-69
2022/07/09 09:03:58;;;;;;;3.45;0.95;;;19.50;80.60;;;;;;5033639;28;20033;-69
2022/07/09 09:06:23;;;;;;;2.70;1.27;;;19.40;81.00;;;;;;5038063;28;20107;-69
2022/07/09 09:08:54;;;;;;;4.82;1.30;;;19.30;81.70;;;;;;5043227;28;20518;-69
2022/07/09 09:11:22;;;;;;;4.38;1.10;;;20.00;79.80;;;;;;5033801;28;20033;-69
2022/07/09 09:13:49;;;;;;;2.95;1.00;;;19.90;80.10;;;;;;5042260;28;20033;-69
2022/07/09 09:16:18;;;;;;;4.70;1.23;;;20.00;78.70;;;;;;5047606;28;20059;-67
2022/07/09 09:18:48;;;;;;;2.10;0.98;;;19.80;78.80;;;;;;5047771;28;20060;-67
2022/07/09 09:21:15;;;;;;;2.53;1.20;;;19.90;78.70;;;;;;5047651;28;20063;-67
2022/07/09 09:23:46;;;;;;;2.75;1.20;;;19.80;77.90;;;;;;5048922;28;20033;-67
2022/07/09 09:26:16;;;;;;;4.40;1.50;;;19.40;79.20;;;;;;5046106;28;20033;-67
2022/07/09 09:28:53;;;;;;;;;;;19.30;81.20;;;;;;5036167;28;20349;-67
2022/07/09 09:31:30;;;;;;;3.03;1.25;;;19.00;82.10;;;;;;5043486;28;19909;-67
2022/07/09 09:34:06;;;;;;;4.13;1.50;;;18.80;84.50;;;;;;5037318;28;20190;-67
2022/07/09 09:36:40;;;;;;;5.38;1.50;;;18.50;85.50;;;;;;5045982;28;20077;-67
2022/07/09 09:39:26;;;;;;;3.15;1.65;;;18.30;86.40;;;;;;5041584;28;20060;-66
2022/07/09 09:41:57;;;;;;;2.85;1.60;;;18.30;87.00;;;;;;5038520;28;20048;-69
2022/07/09 09:44:36;;;;;;;4.60;1.50;;;18.50;86.70;;;;;;5044431;28;20029;-69
2022/07/09 09:47:02;;;;;;;4.95;1.50;;;19.10;85.10;;;;;;5038593;28;20113;-69
2022/07/09 09:49:28;;;;;;;3.75;1.60;;;19.70;82.50;;;;;;5044924;28;20170;-69
2022/07/09 09:52:04;;;;;;;3.72;1.52;;;20.20;81.20;;;;;;5044346;28;20034;-69
2022/07/09 09:54:32;;;;;;;3.47;1.38;;;20.70;78.20;;;;;;5046072;28;20456;-69
2022/07/09 09:56:59;;;;;;;2.67;1.42;;;20.50;77.40;;;;;;5040368;28;20080;-69
2022/07/09 09:59:25;;;;;;;3.85;1.10;;;20.70;78.60;;;;;;5040695;28;20033;-69
2022/07/09 10:01:51;;;;;;;2.70;1.02;;;20.80;76.30;;;;;;5047241;28;20033;-69
2022/07/09 10:04:16;;;;;;;3.53;1.48;;;20.50;76.20;;;;;;5047875;28;20113;-69
2022/07/09 10:06:43;;;;;;;2.85;1.00;;;20.00;77.60;;;;;;5044610;28;20032;-70
2022/07/09 10:09:12;;;;;;;5.57;1.10;;;19.70;79.20;;;;;;5043478;28;20452;-69
2022/07/09 10:11:42;;;;;;;1.80;0.90;;;19.60;79.60;;;;;;5046329;28;20070;-69
2022/07/09 10:14:16;;;;;;;1.00;0.88;;;20.10;78.60;;;;;;5046978;28;20037;-69
2022/07/09 10:16:41;;;;;;;2.78;0.85;;;21.00;76.20;;;;;;5052309;28;20412;-69
2022/07/09 10:19:07;;;;;;;2.88;0.70;;;21.30;71.30;;;;;;5049108;28;20132;-69
2022/07/09 10:21:41;;;;;;;1.25;0.70;;;20.90;72.60;;;;;;5047113;28;20065;-69
2022/07/09 10:24:09;;;;;;;4.53;0.90;;;20.70;74.50;;;;;;5041588;28;20103;-69
2022/07/09 10:26:47;;;;;;;2.05;0.82;;;21.50;73.80;;;;;;5038116;28;20033;-69
2022/07/09 10:29:27;;;;;;;1.65;1.00;;;21.70;72.70;;;;;;5040626;28;20041;-69
2022/07/09 10:31:54;;;;;;;2.78;0.80;;;21.30;72.60;;;;;;5040130;28;20091;-69
2022/07/09 10:34:46;;;;;;;1.58;0.77;;;21.30;73.20;;;;;;5048062;28;20049;-69
2022/07/09 10:37:12;;;;;;;5.47;0.70;;;21.50;72.40;;;;;;5046875;28;20118;-69
2022/07/09 10:39:37;;;;;;;3.65;0.80;;;20.90;72.70;;;;;;5038675;28;20091;-69
2022/07/09 10:42:20;;;;;;;1.52;0.85;;;21.00;71.70;;;;;;5046403;28;20040;-69
2022/07/09 10:44:49;;;;;;;2.35;0.80;;;21.70;69.20;;;;;;5050628;28;20017;-69
2022/07/09 10:47:15;;;;;;;2.95;0.68;;;21.80;68.20;;;;;;5052081;28;20036;-69
2022/07/09 10:49:41;;;;;;;2.05;0.70;;;22.10;67.20;;;;;;5046647;28;20119;-69
2022/07/09 10:52:07;;;;;;;1.80;0.43;;;21.90;66.90;;;;;;5050483;28;20021;-69
2022/07/09 10:54:33;;;;;;;2.95;0.60;;;21.70;68.90;;;;;;5051272;28;20044;-69
2022/07/09 10:56:59;;;;;;;1.63;0.60;;;21.20;71.30;;;;;;5042204;28;20037;-69
2022/07/09 10:59:25;;;;;;;1.85;0.70;;;20.60;71.40;;;;;;5043112;28;20130;-70
2022/07/09 11:01:52;;;;;;;2.42;0.88;;;20.20;73.30;;;;;;5042752;28;20034;-70
2022/07/09 11:04:28;;;;;;;2.92;1.00;;;19.90;73.90;;;;;;5044778;28;20075;-69
2022/07/09 11:06:54;;;;;;;1.73;0.75;;;20.90;72.60;;;;;;5049361;28;20062;-69
2022/07/09 11:09:19;;;;;;;1.25;0.43;;;21.70;68.90;;;;;;5038545;28;20036;-69
2022/07/09 11:11:47;;;;;;;2.85;0.68;;;22.70;65.60;;;;;;5041343;28;20065;-67
2022/07/09 11:14:13;;;;;;;1.67;0.47;;;22.80;63.20;;;;;;5048887;28;20033;-67
2022/07/09 11:16:39;;;;;;;3.53;0.60;;;23.00;63.30;;;;;;5047317;28;20032;-70
2022/07/09 11:19:18;;;;;;;3.38;0.63;;;23.30;61.50;;;;;;5048241;28;20540;-69
2022/07/09 11:21:44;;;;;;;3.35;0.88;;;22.40;63.10;;;;;;5048395;28;20082;-69
2022/07/09 11:24:18;;;;;;;1.30;0.60;;;22.50;65.10;;;;;;5046681;28;20361;-69
2022/07/09 11:26:44;;;;;;;1.02;0.52;;;22.00;67.30;;;;;;5038393;28;20108;-69
2022/07/09 11:29:10;;;;;;;2.85;0.80;;;21.40;67.90;;;;;;5042448;28;20116;-69
2022/07/09 11:31:36;;;;;;;2.20;0.55;;;21.10;70.50;;;;;;5053158;28;20085;-68
2022/07/09 11:34:12;;;;;;;4.22;0.93;;;20.40;72.20;;;;;;5051414;28;20112;-69
2022/07/09 11:36:43;;;;;;;3.92;0.80;;;20.40;74.70;;;;;;5051279;28;20040;-69
2022/07/09 11:39:09;;;;;;;1.48;0.57;;;20.10;76.30;;;;;;5046366;28;20037;-68
2022/07/09 11:41:44;;;;;;;2.35;0.60;;;19.20;77.40;;;;;;5038646;28;20640;-68
2022/07/09 11:44:18;;;;;;;1.60;0.60;;;19.00;79.50;;;;;;5034106;28;20114;-68
2022/07/09 11:46:44;;;;;;;1.35;0.75;;;19.30;78.60;;;;;;5046249;28;20051;-68
2022/07/09 11:49:16;;;;;;;3.08;1.00;;;20.20;76.40;;;;;;5050004;28;20029;-68
2022/07/09 11:51:42;;;;;;;2.10;0.70;;;20.50;74.30;;;;;;5047328;28;20055;-68
2022/07/09 11:54:08;;;;;;;2.92;0.73;;;21.30;72.30;;;;;;5046049;28;20037;-68
2022/07/09 11:56:43;;;;;;;3.03;0.98;;;21.90;69.50;;;;;;5045447;28;20400;-68
2022/07/09 11:59:12;;;;;;;3.03;0.80;;;22.10;68.00;;;;;;5046426;28;20033;-69
2022/07/09 12:01:38;;;;;;;3.63;0.95;;;22.60;66.50;;;;;;5047831;28;20041;-69
2022/07/09 12:04:04;;;;;;;3.83;0.60;;;22.80;66.00;;;;;;5048078;28;20051;-68
2022/07/09 12:06:30;;;;;;;1.88;0.60;;;22.60;63.90;;;;;;5048498;28;20045;-69
2022/07/09 12:09:00;;;;;;;2.92;0.85;;;22.90;64.00;;;;;;5049077;28;20114;-69
2022/07/09 12:11:27;;;;;;;1.60;0.63;;;22.50;64.00;;;;;;5047182;28;20036;-69
2022/07/09 12:13:52;;;;;;;2.78;1.00;;;23.30;62.90;;;;;;5046603;28;20085;-69
2022/07/09 12:16:18;;;;;;;2.17;0.70;;;23.60;62.00;;;;;;5038114;28;20028;-69
2022/07/09 12:18:43;;;;;;;6.97;1.05;;;24.20;60.10;;;;;;5048736;28;20603;-69
2022/07/09 12:21:09;;;;;;;5.30;0.98;;;23.20;64.30;;;;;;5044824;28;20124;-68
2022/07/09 12:23:34;;;;;;;2.88;0.70;;;22.00;70.60;;;;;;5043678;28;20045;-68
2022/07/09 12:26:00;;;;;;;3.38;0.95;;;21.60;70.70;;;;;;5044091;28;20036;-70
2022/07/09 12:28:25;;;;;;;2.53;0.65;;;21.20;71.20;;;;;;5038340;28;20020;-68
2022/07/09 12:30:51;;;;;;;3.25;0.55;;;21.50;70.20;;;;;;5047218;28;20036;-68
2022/07/09 12:33:16;;;;;;;2.63;0.70;;;22.50;68.60;;;;;;5043018;28;20156;-69
2022/07/09 12:35:42;;;;;;;1.55;0.50;;;23.00;66.10;;;;;;5045790;28;20111;-67
2022/07/09 12:38:07;;;;;;;1.30;0.52;;;22.10;65.10;;;;;;5041492;28;20056;-68